PWSweather.com
Personal Weather Stations
Station Observations
UWIDEPER1
Brown County, Depere, WI 54115

Brown CountyDepere, WI 54115

Lat: 44.44, Lon: -88.05

Elevation: 610

Station Type: Acurite 5in1

Latest ConditionsUpdated 8:00:00 PM CDT Monday, Mar 25, 2019
Currently Today's Max Today's Min Today's Average
Temperature 33.7°F0.9°C 44.2°F6.8°C 19.6°F-6.9°C 31.4°F-0.3°C
Dew Point 17.0°F-8.3°C 24.0°F-4.4°C 13.9°F-10.1°C 18.5°F-7.5°C
Winds Calm Calm 8.1 mph -13.0 kmh - - 3.8 mph 6.1 kmh
Wind Gusts -- 16.1 mph25.9 kmh - -
Humidity 50% 88% 35% 62%
Pressure 30.33 in1027.1 mb 30.42 in1030.1 mb 30.30 in1026.1 mb -
Hour Temp Dew Point Humidity Winds Wind Gusts Pressure Precip Precip Rate Daily Precip Total
08:00 PM 33.7°F0.9°C 17.0°F-8.3°C 50% Calm Calm -- 30.33 in1027.1 mb - 0.00 in0.0 mm 0.00 in0.0 mm
07:55 PM 34.2°F1.2°C 17.4°F-8.1°C 50% Calm Calm -- 30.33 in1027.1 mb - 0.00 in0.0 mm 0.00 in0.0 mm
07:50 PM 34.8°F1.6°C 18.0°F-7.8°C 50% Calm Calm -- 30.33 in1027.1 mb - 0.00 in0.0 mm 0.00 in0.0 mm
07:45 PM 35.1°F1.7°C 18.3°F-7.6°C 50% 1.2 mph SSW1.9 kmh SSW 1.2 mph1.9 kmh 30.33 in1027.1 mb - 0.00 in0.0 mm 0.00 in0.0 mm
07:40 PM 35.4°F1.9°C 18.1°F-7.7°C 49% 1.2 mph S1.9 kmh S 1.2 mph1.9 kmh 30.33 in1027.1 mb - 0.00 in0.0 mm 0.00 in0.0 mm
07:35 PM 36.1°F2.3°C 18.7°F-7.4°C 49% 1.2 mph SSW1.9 kmh SSW 1.2 mph1.9 kmh 30.33 in1027.1 mb - 0.00 in0.0 mm 0.00 in0.0 mm
07:30 PM 36.6°F2.6°C 18.7°F-7.4°C 48% 1.2 mph SSW1.9 kmh SSW 2.3 mph3.7 kmh 30.33 in1027.1 mb - 0.00 in0.0 mm 0.00 in0.0 mm
07:25 PM 37.0°F2.8°C 17.6°F-8.0°C 45% 2.3 mph SSW3.7 kmh SSW 3.5 mph5.6 kmh 30.33 in1027.1 mb - 0.00 in0.0 mm 0.00 in0.0 mm
07:20 PM 37.6°F3.1°C 18.1°F-7.7°C 45% 1.2 mph SSW1.9 kmh SSW 1.2 mph1.9 kmh 30.33 in1027.1 mb - 0.00 in0.0 mm 0.00 in0.0 mm
07:15 PM 38.0°F3.3°C 18.5°F-7.5°C 45% 2.3 mph SSW3.7 kmh SSW 2.3 mph3.7 kmh 30.33 in1027.1 mb - 0.00 in0.0 mm 0.00 in0.0 mm
07:10 PM 38.7°F3.7°C 18.1°F-7.7°C 43% 2.3 mph SW3.7 kmh SW 2.3 mph3.7 kmh 30.33 in1027.1 mb - 0.00 in0.0 mm 0.00 in0.0 mm
07:00 PM 41.2°F5.1°C 18.1°F-7.7°C 39% 2.3 mph SSW3.7 kmh SSW 3.5 mph5.6 kmh 30.33 in1027.1 mb - 0.00 in0.0 mm 0.00 in0.0 mm
06:55 PM 41.2°F5.1°C 18.1°F-7.7°C 39% 1.2 mph SSW1.9 kmh SSW 3.5 mph5.6 kmh 30.33 in1027.1 mb - 0.00 in0.0 mm 0.00 in0.0 mm
06:50 PM 41.3°F5.2°C 18.7°F-7.4°C 40% 1.2 mph SSW1.9 kmh SSW 1.2 mph1.9 kmh 30.33 in1027.1 mb - 0.00 in0.0 mm 0.00 in0.0 mm
06:45 PM 41.7°F5.4°C 18.5°F-7.5°C 39% 1.2 mph SSW1.9 kmh SSW 3.5 mph5.6 kmh 30.33 in1027.1 mb - 0.00 in0.0 mm 0.00 in0.0 mm
06:40 PM 42.4°F5.8°C 18.0°F-7.8°C 37% 1.2 mph WSW1.9 kmh WSW -- 30.33 in1027.1 mb - 0.00 in0.0 mm 0.00 in0.0 mm
06:35 PM 42.4°F5.8°C 18.0°F-7.8°C 37% 2.3 mph W3.7 kmh W 3.5 mph5.6 kmh 30.33 in1027.1 mb - 0.00 in0.0 mm 0.00 in0.0 mm
06:30 PM 42.6°F5.9°C 18.1°F-7.7°C 37% 2.3 mph WSW3.7 kmh WSW 3.5 mph5.6 kmh 30.33 in1027.1 mb - 0.00 in0.0 mm 0.00 in0.0 mm
06:25 PM 42.4°F5.8°C 17.9°F-7.8°C 37% 2.3 mph WSW3.7 kmh WSW 3.5 mph5.6 kmh 30.33 in1027.1 mb - 0.00 in0.0 mm 0.00 in0.0 mm
06:20 PM 42.0°F5.6°C 17.6°F-8.0°C 37% Calm Calm 3.5 mph5.6 kmh 30.33 in1027.1 mb - 0.00 in0.0 mm 0.00 in0.0 mm
06:15 PM 41.5°F5.3°C 17.1°F-8.3°C 37% 1.2 mph ESE1.9 kmh ESE 1.2 mph1.9 kmh 30.33 in1027.1 mb - 0.00 in0.0 mm 0.00 in0.0 mm
06:10 PM 43.2°F6.2°C 18.6°F-7.4°C 37% 2.3 mph SW3.7 kmh SW 3.5 mph5.6 kmh 30.34 in1027.4 mb - 0.00 in0.0 mm 0.00 in0.0 mm
06:00 PM 43.3°F6.3°C 17.5°F-8.1°C 35% 2.3 mph WSW3.7 kmh WSW 3.5 mph5.6 kmh 30.34 in1027.4 mb - 0.00 in0.0 mm 0.00 in0.0 mm
05:55 PM 43.2°F6.2°C 17.3°F-8.2°C 35% 2.3 mph WSW3.7 kmh WSW 3.5 mph5.6 kmh 30.34 in1027.4 mb - 0.00 in0.0 mm 0.00 in0.0 mm
05:50 PM 43.0°F6.1°C 17.2°F-8.2°C 35% 3.5 mph W5.6 kmh W 3.5 mph5.6 kmh 30.34 in1027.4 mb - 0.00 in0.0 mm 0.00 in0.0 mm
05:45 PM 43.0°F6.1°C 17.2°F-8.2°C 35% 2.3 mph WNW3.7 kmh WNW 3.5 mph5.6 kmh 30.34 in1027.4 mb - 0.00 in0.0 mm 0.00 in0.0 mm
05:40 PM 42.4°F5.8°C 16.7°F-8.5°C 35% 3.5 mph NW5.6 kmh NW 3.5 mph5.6 kmh 30.34 in1027.4 mb - 0.00 in0.0 mm 0.00 in0.0 mm
05:35 PM 44.2°F6.8°C 18.3°F-7.6°C 35% 3.5 mph W5.6 kmh W 3.5 mph5.6 kmh 30.34 in1027.4 mb - 0.00 in0.0 mm 0.00 in0.0 mm
05:30 PM 44.2°F6.8°C 18.3°F-7.6°C 35% 2.3 mph WSW3.7 kmh WSW 2.3 mph3.7 kmh 30.34 in1027.4 mb - 0.00 in0.0 mm 0.00 in0.0 mm
05:25 PM 43.5°F6.4°C 17.6°F-8.0°C 35% 2.3 mph NNW3.7 kmh NNW 3.5 mph5.6 kmh 30.33 in1027.1 mb - 0.00 in0.0 mm 0.00 in0.0 mm
05:20 PM 43.2°F6.2°C 17.3°F-8.2°C 35% 2.3 mph W3.7 kmh W 3.5 mph5.6 kmh 30.34 in1027.4 mb - 0.00 in0.0 mm 0.00 in0.0 mm
05:15 PM 42.9°F6.1°C 17.1°F-8.3°C 35% 3.5 mph SW5.6 kmh SW 4.6 mph7.4 kmh 30.34 in1027.4 mb - 0.00 in0.0 mm 0.00 in0.0 mm
05:10 PM 42.4°F5.8°C 16.7°F-8.5°C 35% 2.3 mph NW3.7 kmh NW 3.5 mph5.6 kmh 30.33 in1027.1 mb - 0.00 in0.0 mm 0.00 in0.0 mm
05:00 PM 43.1°F6.2°C 18.5°F-7.5°C 37% 2.3 mph S3.7 kmh S 3.5 mph5.6 kmh 30.34 in1027.4 mb - 0.00 in0.0 mm 0.00 in0.0 mm
04:55 PM 42.4°F5.8°C 18.0°F-7.8°C 37% 2.3 mph W3.7 kmh W 2.3 mph3.7 kmh 30.34 in1027.4 mb - 0.00 in0.0 mm 0.00 in0.0 mm
04:50 PM 42.5°F5.8°C 18.0°F-7.8°C 37% 1.2 mph W1.9 kmh W 2.3 mph3.7 kmh 30.34 in1027.4 mb - 0.00 in0.0 mm 0.00 in0.0 mm
04:45 PM 43.0°F6.1°C 18.4°F-7.6°C 37% 3.5 mph SW5.6 kmh SW 3.5 mph5.6 kmh 30.34 in1027.4 mb - 0.00 in0.0 mm 0.00 in0.0 mm
04:40 PM 43.2°F6.2°C 18.6°F-7.4°C 37% 2.3 mph S3.7 kmh S 3.5 mph5.6 kmh 30.34 in1027.4 mb - 0.00 in0.0 mm 0.00 in0.0 mm
04:35 PM 42.4°F5.8°C 18.0°F-7.8°C 37% 3.5 mph SE5.6 kmh SE 3.5 mph5.6 kmh 30.34 in1027.4 mb - 0.00 in0.0 mm 0.00 in0.0 mm
04:30 PM 42.4°F5.8°C 18.0°F-7.8°C 37% 2.3 mph S3.7 kmh S 3.5 mph5.6 kmh 30.34 in1027.4 mb - 0.00 in0.0 mm 0.00 in0.0 mm
04:25 PM 42.8°F6.0°C 18.9°F-7.3°C 38% 2.3 mph WSW3.7 kmh WSW 3.5 mph5.6 kmh 30.34 in1027.4 mb - 0.00 in0.0 mm 0.00 in0.0 mm
04:20 PM 42.4°F5.8°C 19.2°F-7.1°C 39% 3.5 mph WNW5.6 kmh WNW 4.6 mph7.4 kmh 30.34 in1027.4 mb - 0.00 in0.0 mm 0.00 in0.0 mm
04:15 PM 43.2°F6.2°C 19.8°F-6.8°C 39% 3.5 mph W5.6 kmh W 3.5 mph5.6 kmh 30.35 in1027.8 mb - 0.00 in0.0 mm 0.00 in0.0 mm
04:10 PM 42.4°F5.8°C 19.8°F-6.8°C 40% 3.5 mph W5.6 kmh W 2.3 mph3.7 kmh 30.35 in1027.8 mb - 0.00 in0.0 mm 0.00 in0.0 mm
04:00 PM 42.6°F5.9°C 19.4°F-7.0°C 39% 2.3 mph SW3.7 kmh SW 1.2 mph1.9 kmh 30.35 in1027.8 mb - 0.00 in0.0 mm 0.00 in0.0 mm
03:55 PM 43.0°F6.1°C 19.7°F-6.8°C 39% 2.3 mph WNW3.7 kmh WNW 3.5 mph5.6 kmh 30.35 in1027.8 mb - 0.00 in0.0 mm 0.00 in0.0 mm
03:50 PM 43.0°F6.1°C 18.5°F-7.5°C 37% 1.2 mph ENE1.9 kmh ENE 1.2 mph1.9 kmh 30.35 in1027.8 mb - 0.00 in0.0 mm 0.00 in0.0 mm
03:45 PM 42.7°F5.9°C 20.1°F-6.6°C 40% 2.3 mph ESE3.7 kmh ESE 2.3 mph3.7 kmh 30.35 in1027.8 mb - 0.00 in0.0 mm 0.00 in0.0 mm
03:40 PM 43.2°F6.2°C 20.4°F-6.4°C 40% 2.3 mph NW3.7 kmh NW 3.5 mph5.6 kmh 30.35 in1027.8 mb - 0.00 in0.0 mm 0.00 in0.0 mm
03:35 PM 42.5°F5.8°C 19.9°F-6.7°C 40% 3.5 mph ENE5.6 kmh ENE 3.5 mph5.6 kmh 30.35 in1027.8 mb - 0.00 in0.0 mm 0.00 in0.0 mm
03:30 PM 42.6°F5.9°C 20.0°F-6.7°C 40% 3.5 mph N5.6 kmh N 3.5 mph5.6 kmh 30.35 in1027.8 mb - 0.00 in0.0 mm 0.00 in0.0 mm
03:25 PM 42.4°F5.8°C 19.2°F-7.1°C 39% 2.3 mph NNE3.7 kmh NNE 3.5 mph5.6 kmh 30.36 in1028.1 mb - 0.00 in0.0 mm 0.00 in0.0 mm
03:20 PM 42.4°F5.8°C 19.8°F-6.8°C 40% 3.5 mph SW5.6 kmh SW 3.5 mph5.6 kmh 30.36 in1028.1 mb - 0.00 in0.0 mm 0.00 in0.0 mm
03:15 PM 42.4°F5.8°C 19.2°F-7.1°C 39% 1.2 mph SW1.9 kmh SW 3.5 mph5.6 kmh 30.36 in1028.1 mb - 0.00 in0.0 mm 0.00 in0.0 mm
03:10 PM 42.0°F5.6°C 17.6°F-8.0°C 37% 2.3 mph W3.7 kmh W -- 30.36 in1028.1 mb - 0.00 in0.0 mm 0.00 in0.0 mm
03:00 PM 42.3°F5.7°C 19.6°F-6.9°C 40% 2.3 mph S3.7 kmh S 3.5 mph5.6 kmh 30.36 in1028.1 mb - 0.00 in0.0 mm 0.00 in0.0 mm
02:55 PM 42.5°F5.8°C 19.3°F-7.1°C 39% 2.3 mph SSW3.7 kmh SSW 3.5 mph5.6 kmh 30.36 in1028.1 mb - 0.00 in0.0 mm 0.00 in0.0 mm
02:50 PM 41.8°F5.4°C 18.6°F-7.4°C 39% 2.3 mph NNW3.7 kmh NNW 2.3 mph3.7 kmh 30.36 in1028.1 mb - 0.00 in0.0 mm 0.00 in0.0 mm
02:45 PM 41.7°F5.4°C 18.5°F-7.5°C 39% 1.2 mph S1.9 kmh S 2.3 mph3.7 kmh 30.37 in1028.4 mb - 0.00 in0.0 mm 0.00 in0.0 mm
02:40 PM 41.5°F5.3°C 18.4°F-7.6°C 39% 2.3 mph NNW3.7 kmh NNW 2.3 mph3.7 kmh 30.37 in1028.4 mb - 0.00 in0.0 mm 0.00 in0.0 mm
02:35 PM 40.3°F4.6°C 17.8°F-7.9°C 40% 3.5 mph W5.6 kmh W 3.5 mph5.6 kmh 30.38 in1028.8 mb - 0.00 in0.0 mm 0.00 in0.0 mm
02:30 PM 40.6°F4.8°C 17.0°F-8.3°C 38% 3.5 mph ENE5.6 kmh ENE 3.5 mph5.6 kmh 30.38 in1028.8 mb - 0.00 in0.0 mm 0.00 in0.0 mm
02:25 PM 40.3°F4.6°C 16.1°F-8.8°C 37% 3.5 mph E5.6 kmh E 2.3 mph3.7 kmh 30.38 in1028.8 mb - 0.00 in0.0 mm 0.00 in0.0 mm
02:20 PM 40.3°F4.6°C 14.8°F-9.6°C 35% 3.5 mph N5.6 kmh N 3.5 mph5.6 kmh 30.38 in1028.8 mb - 0.00 in0.0 mm 0.00 in0.0 mm
02:15 PM 39.9°F4.4°C 16.9°F-8.4°C 39% 3.5 mph N5.6 kmh N 3.5 mph5.6 kmh 30.38 in1028.8 mb - 0.00 in0.0 mm 0.00 in0.0 mm
02:10 PM 39.9°F4.4°C 17.5°F-8.1°C 40% 2.3 mph NE3.7 kmh NE 2.3 mph3.7 kmh 30.38 in1028.8 mb - 0.00 in0.0 mm 0.00 in0.0 mm
02:00 PM 40.3°F4.6°C 14.8°F-9.6°C 35% 3.5 mph N5.6 kmh N 5.8 mph9.3 kmh 30.38 in1028.8 mb - 0.00 in0.0 mm 0.00 in0.0 mm
01:55 PM 39.4°F4.1°C 14.0°F-10.0°C 35% 4.6 mph N7.4 kmh N 5.8 mph9.3 kmh 30.38 in1028.8 mb - 0.00 in0.0 mm 0.00 in0.0 mm
01:50 PM 39.3°F4.1°C 13.9°F-10.1°C 35% 3.5 mph NW5.6 kmh NW 5.8 mph9.3 kmh 30.38 in1028.8 mb - 0.00 in0.0 mm 0.00 in0.0 mm
01:45 PM 39.6°F4.2°C 14.2°F-9.9°C 35% 3.5 mph WNW5.6 kmh WNW 4.6 mph7.4 kmh 30.38 in1028.8 mb - 0.00 in0.0 mm 0.00 in0.0 mm
01:40 PM 39.5°F4.2°C 14.0°F-10.0°C 35% 3.5 mph E5.6 kmh E 3.5 mph5.6 kmh 30.39 in1029.1 mb - 0.00 in0.0 mm 0.00 in0.0 mm
01:35 PM 39.5°F4.2°C 14.1°F-9.9°C 35% 3.5 mph NE5.6 kmh NE 5.8 mph9.3 kmh 30.39 in1029.1 mb - 0.00 in0.0 mm 0.00 in0.0 mm
01:30 PM 39.0°F3.9°C 14.9°F-9.5°C 37% 3.5 mph E5.6 kmh E 3.5 mph5.6 kmh 30.39 in1029.1 mb - 0.00 in0.0 mm 0.00 in0.0 mm
01:25 PM 38.6°F3.7°C 15.7°F-9.1°C 39% 4.6 mph N7.4 kmh N 8.1 mph13.0 kmh 30.39 in1029.1 mb - 0.00 in0.0 mm 0.00 in0.0 mm
01:20 PM 37.8°F3.2°C 15.6°F-9.1°C 40% 4.6 mph W7.4 kmh W 2.3 mph3.7 kmh 30.39 in1029.1 mb - 0.00 in0.0 mm 0.00 in0.0 mm
01:15 PM 39.0°F3.9°C 17.3°F-8.2°C 41% 4.6 mph NNE7.4 kmh NNE 9.2 mph14.8 kmh 30.39 in1029.1 mb - 0.00 in0.0 mm 0.00 in0.0 mm
01:10 PM 38.4°F3.6°C 18.4°F-7.6°C 44% 3.5 mph NNE5.6 kmh NNE 5.8 mph9.3 kmh 30.39 in1029.1 mb - 0.00 in0.0 mm 0.00 in0.0 mm
01:00 PM 39.0°F3.9°C 18.9°F-7.3°C 44% 4.6 mph N7.4 kmh N 4.6 mph7.4 kmh 30.39 in1029.1 mb - 0.00 in0.0 mm 0.00 in0.0 mm
12:55 PM 37.4°F3.0°C 20.0°F-6.7°C 49% 4.6 mph W7.4 kmh W 4.6 mph7.4 kmh 30.40 in1029.5 mb - 0.00 in0.0 mm 0.00 in0.0 mm
12:50 PM 37.2°F2.9°C 19.3°F-7.1°C 48% 4.6 mph N7.4 kmh N 5.8 mph9.3 kmh 30.39 in1029.1 mb - 0.00 in0.0 mm 0.00 in0.0 mm
12:45 PM 37.3°F2.9°C 19.4°F-7.0°C 48% 4.6 mph E7.4 kmh E 3.5 mph5.6 kmh 30.41 in1029.8 mb - 0.00 in0.0 mm 0.00 in0.0 mm
12:40 PM 36.7°F2.6°C 20.3°F-6.5°C 51% 4.6 mph NNW7.4 kmh NNW 3.5 mph5.6 kmh 30.40 in1029.5 mb - 0.00 in0.0 mm 0.00 in0.0 mm
12:35 PM 36.3°F2.4°C 19.8°F-6.8°C 51% 5.8 mph NW9.3 kmh NW 8.1 mph13.0 kmh 30.40 in1029.5 mb - 0.00 in0.0 mm 0.00 in0.0 mm
12:30 PM 36.0°F2.2°C 20.9°F-6.2°C 54% 5.8 mph N9.3 kmh N 5.8 mph9.3 kmh 30.41 in1029.8 mb - 0.00 in0.0 mm 0.00 in0.0 mm
12:25 PM 36.1°F2.3°C 21.1°F-6.1°C 54% 6.9 mph NW11.1 kmh NW 8.1 mph13.0 kmh 30.41 in1029.8 mb - 0.00 in0.0 mm 0.00 in0.0 mm
12:20 PM 36.6°F2.6°C 21.9°F-5.6°C 55% 4.6 mph WNW7.4 kmh WNW 4.6 mph7.4 kmh 30.41 in1029.8 mb - 0.00 in0.0 mm 0.00 in0.0 mm
12:15 PM 36.2°F2.3°C 22.0°F-5.6°C 56% 4.6 mph NNW7.4 kmh NNW 3.5 mph5.6 kmh 30.41 in1029.8 mb - 0.00 in0.0 mm 0.00 in0.0 mm
12:10 PM 37.6°F3.1°C 22.9°F-5.1°C 55% 4.6 mph NNE7.4 kmh NNE 5.8 mph9.3 kmh 30.41 in1029.8 mb - 0.00 in0.0 mm 0.00 in0.0 mm
12:00 PM 36.9°F2.7°C 23.9°F-4.5°C 59% 3.5 mph NNW5.6 kmh NNW 6.9 mph11.1 kmh 30.41 in1029.8 mb - 0.00 in0.0 mm 0.00 in0.0 mm
11:55 AM 36.4°F2.4°C 23.8°F-4.6°C 60% 3.5 mph NNE5.6 kmh NNE 3.5 mph5.6 kmh 30.41 in1029.8 mb - 0.00 in0.0 mm 0.00 in0.0 mm
11:50 AM 36.1°F2.3°C 24.0°F-4.4°C 61% 3.5 mph ENE5.6 kmh ENE 4.6 mph7.4 kmh 30.41 in1029.8 mb - 0.00 in0.0 mm 0.00 in0.0 mm
11:45 AM 35.4°F1.9°C 23.3°F-4.8°C 61% 5.8 mph NE9.3 kmh NE 5.8 mph9.3 kmh 30.41 in1029.8 mb - 0.00 in0.0 mm 0.00 in0.0 mm
11:40 AM 36.1°F2.3°C 24.0°F-4.4°C 61% 3.5 mph NE5.6 kmh NE 3.5 mph5.6 kmh 30.41 in1029.8 mb - 0.00 in0.0 mm 0.00 in0.0 mm
11:35 AM 36.1°F2.3°C 24.0°F-4.4°C 61% 3.5 mph NE5.6 kmh NE 6.9 mph11.1 kmh 30.41 in1029.8 mb - 0.00 in0.0 mm 0.00 in0.0 mm
11:30 AM 35.1°F1.7°C 23.8°F-4.6°C 63% 4.6 mph ENE7.4 kmh ENE 3.5 mph5.6 kmh 30.41 in1029.8 mb - 0.00 in0.0 mm 0.00 in0.0 mm
11:25 AM 35.4°F1.9°C 23.3°F-4.8°C 61% 4.6 mph N7.4 kmh N 4.6 mph7.4 kmh 30.41 in1029.8 mb - 0.00 in0.0 mm 0.00 in0.0 mm
11:20 AM 34.9°F1.6°C 23.5°F-4.7°C 63% 3.5 mph NNW5.6 kmh NNW 5.8 mph9.3 kmh 30.41 in1029.8 mb - 0.00 in0.0 mm 0.00 in0.0 mm
11:15 AM 34.1°F1.2°C 22.8°F-5.1°C 63% 4.6 mph ENE7.4 kmh ENE 3.5 mph5.6 kmh 30.42 in1030.1 mb - 0.00 in0.0 mm 0.00 in0.0 mm
11:10 AM 34.1°F1.2°C 23.2°F-4.9°C 64% 4.6 mph N7.4 kmh N 4.6 mph7.4 kmh 30.41 in1029.8 mb - 0.00 in0.0 mm 0.00 in0.0 mm
11:00 AM 34.2°F1.2°C 22.9°F-5.1°C 63% 4.6 mph N7.4 kmh N 5.8 mph9.3 kmh 30.42 in1030.1 mb - 0.00 in0.0 mm 0.00 in0.0 mm
10:55 AM 33.8°F1.0°C 23.3°F-4.8°C 65% 4.6 mph ENE7.4 kmh ENE 3.5 mph5.6 kmh 30.42 in1030.1 mb - 0.00 in0.0 mm 0.00 in0.0 mm
10:50 AM 33.8°F1.0°C 22.9°F-5.1°C 64% 4.6 mph NNW7.4 kmh NNW 3.5 mph5.6 kmh 30.41 in1029.8 mb - 0.00 in0.0 mm 0.00 in0.0 mm
10:45 AM 33.8°F1.0°C 22.5°F-5.3°C 63% 4.6 mph NW7.4 kmh NW 4.6 mph7.4 kmh 30.41 in1029.8 mb - 0.00 in0.0 mm 0.00 in0.0 mm
10:40 AM 33.1°F0.6°C 22.6°F-5.2°C 65% 3.5 mph N5.6 kmh N 4.6 mph7.4 kmh 30.42 in1030.1 mb - 0.00 in0.0 mm 0.00 in0.0 mm
10:35 AM 33.1°F0.6°C 22.6°F-5.2°C 65% 4.6 mph NE7.4 kmh NE 5.8 mph9.3 kmh 30.41 in1029.8 mb - 0.00 in0.0 mm 0.00 in0.0 mm
10:30 AM 32.6°F0.3°C 22.2°F-5.4°C 65% 3.5 mph NNE5.6 kmh NNE 3.5 mph5.6 kmh 30.41 in1029.8 mb - 0.00 in0.0 mm 0.00 in0.0 mm
10:25 AM 32.5°F0.3°C 22.1°F-5.5°C 65% 3.5 mph N5.6 kmh N 4.6 mph7.4 kmh 30.42 in1030.1 mb - 0.00 in0.0 mm 0.00 in0.0 mm
10:20 AM 32.9°F0.5°C 22.4°F-5.3°C 65% 4.6 mph NNE7.4 kmh NNE 5.8 mph9.3 kmh 30.42 in1030.1 mb - 0.00 in0.0 mm 0.00 in0.0 mm
10:15 AM 32.9°F0.5°C 22.4°F-5.3°C 65% 3.5 mph NW5.6 kmh NW 5.8 mph9.3 kmh 30.41 in1029.8 mb - 0.00 in0.0 mm 0.00 in0.0 mm
10:10 AM 32.2°F0.1°C 21.8°F-5.7°C 65% 4.6 mph ENE7.4 kmh ENE 3.5 mph5.6 kmh 30.41 in1029.8 mb - 0.00 in0.0 mm 0.00 in0.0 mm
10:00 AM 31.6°F-0.2°C 21.2°F-6.0°C 65% 3.5 mph NNE5.6 kmh NNE 4.6 mph7.4 kmh 30.41 in1029.8 mb - 0.00 in0.0 mm 0.00 in0.0 mm
09:55 AM 31.4°F-0.3°C 21.3°F-5.9°C 66% 4.6 mph NE7.4 kmh NE 3.5 mph5.6 kmh 30.42 in1030.1 mb - 0.00 in0.0 mm 0.00 in0.0 mm
09:50 AM 30.0°F-1.1°C 20.7°F-6.3°C 68% 4.6 mph NE7.4 kmh NE 3.5 mph5.6 kmh 30.41 in1029.8 mb - 0.00 in0.0 mm 0.00 in0.0 mm
09:45 AM 30.1°F-1.1°C 20.8°F-6.2°C 68% 4.6 mph NE7.4 kmh NE 3.5 mph5.6 kmh 30.42 in1030.1 mb - 0.00 in0.0 mm 0.00 in0.0 mm
09:40 AM 29.9°F-1.2°C 21.0°F-6.1°C 69% 4.6 mph NW7.4 kmh NW 5.8 mph9.3 kmh 30.42 in1030.1 mb - 0.00 in0.0 mm 0.00 in0.0 mm
09:35 AM 30.0°F-1.1°C 21.1°F-6.1°C 69% 4.6 mph NNW7.4 kmh NNW 6.9 mph11.1 kmh 30.42 in1030.1 mb - 0.00 in0.0 mm 0.00 in0.0 mm
09:30 AM 30.3°F-0.9°C 21.3°F-5.9°C 69% 4.6 mph NNW7.4 kmh NNW 4.6 mph7.4 kmh 30.41 in1029.8 mb - 0.00 in0.0 mm 0.00 in0.0 mm
09:25 AM 30.7°F-0.7°C 21.8°F-5.7°C 69% 3.5 mph ENE5.6 kmh ENE 6.9 mph11.1 kmh 30.42 in1030.1 mb - 0.00 in0.0 mm 0.00 in0.0 mm
09:20 AM 29.7°F-1.3°C 21.1°F-6.1°C 70% 4.6 mph NE7.4 kmh NE 5.8 mph9.3 kmh 30.42 in1030.1 mb - 0.00 in0.0 mm 0.00 in0.0 mm
09:15 AM 29.1°F-1.6°C 20.6°F-6.3°C 70% 4.6 mph NE7.4 kmh NE 3.5 mph5.6 kmh 30.41 in1029.8 mb - 0.00 in0.0 mm 0.00 in0.0 mm
09:10 AM 29.5°F-1.4°C 21.2°F-6.0°C 71% 3.5 mph NE5.6 kmh NE 5.8 mph9.3 kmh 30.41 in1029.8 mb - 0.00 in0.0 mm 0.00 in0.0 mm
09:00 AM 28.8°F-1.8°C 20.5°F-6.4°C 71% 4.6 mph NNE7.4 kmh NNE 3.5 mph5.6 kmh 30.41 in1029.8 mb - 0.00 in0.0 mm 0.00 in0.0 mm
08:55 AM 28.6°F-1.9°C 21.4°F-5.9°C 74% 3.5 mph NE5.6 kmh NE 4.6 mph7.4 kmh 30.40 in1029.5 mb - 0.00 in0.0 mm 0.00 in0.0 mm
08:50 AM 27.9°F-2.3°C 20.6°F-6.3°C 74% 3.5 mph NE5.6 kmh NE 3.5 mph5.6 kmh 30.41 in1029.8 mb - 0.00 in0.0 mm 0.00 in0.0 mm
08:45 AM 27.6°F-2.4°C 20.7°F-6.3°C 75% 3.5 mph NNE5.6 kmh NNE 5.8 mph9.3 kmh 30.40 in1029.5 mb - 0.00 in0.0 mm 0.00 in0.0 mm
08:40 AM 27.9°F-2.3°C 21.0°F-6.1°C 75% 3.5 mph NNW5.6 kmh NNW 3.5 mph5.6 kmh 30.40 in1029.5 mb - 0.00 in0.0 mm 0.00 in0.0 mm
08:35 AM 28.9°F-1.7°C 21.7°F-5.7°C 74% 2.3 mph NNW3.7 kmh NNW 3.5 mph5.6 kmh 30.41 in1029.8 mb - 0.00 in0.0 mm 0.00 in0.0 mm
08:30 AM 27.8°F-2.3°C 20.9°F-6.2°C 75% 3.5 mph NNW5.6 kmh NNW 2.3 mph3.7 kmh 30.40 in1029.5 mb - 0.00 in0.0 mm 0.00 in0.0 mm
08:25 AM 27.0°F-2.8°C 20.4°F-6.4°C 76% 4.6 mph NE7.4 kmh NE 3.5 mph5.6 kmh 30.40 in1029.5 mb - 0.00 in0.0 mm 0.00 in0.0 mm
08:15 AM 25.1°F-3.8°C 19.8°F-6.8°C 80% 5.8 mph NNE9.3 kmh NNE 6.9 mph11.1 kmh 30.40 in1029.5 mb - 0.00 in0.0 mm 0.00 in0.0 mm
08:10 AM 24.6°F-4.1°C 19.6°F-6.9°C 81% 4.6 mph NNE7.4 kmh NNE 5.8 mph9.3 kmh 30.40 in1029.5 mb - 0.00 in0.0 mm 0.00 in0.0 mm
08:00 AM 24.3°F-4.3°C 19.3°F-7.1°C 81% 4.6 mph NW7.4 kmh NW 4.6 mph7.4 kmh 30.40 in1029.5 mb - 0.00 in0.0 mm 0.00 in0.0 mm
07:55 AM 24.2°F-4.3°C 19.8°F-6.8°C 83% 3.5 mph NNE5.6 kmh NNE 3.5 mph5.6 kmh 30.40 in1029.5 mb - 0.00 in0.0 mm 0.00 in0.0 mm
07:50 AM 23.4°F-4.8°C 19.0°F-7.2°C 83% 3.5 mph N5.6 kmh N 4.6 mph7.4 kmh 30.40 in1029.5 mb - 0.00 in0.0 mm 0.00 in0.0 mm
07:45 AM 23.3°F-4.8°C 18.9°F-7.3°C 83% 4.6 mph NE7.4 kmh NE 3.5 mph5.6 kmh 30.40 in1029.5 mb - 0.00 in0.0 mm 0.00 in0.0 mm
07:40 AM 22.5°F-5.3°C 19.0°F-7.2°C 86% 3.5 mph NNE5.6 kmh NNE 5.8 mph9.3 kmh 30.40 in1029.5 mb - 0.00 in0.0 mm 0.00 in0.0 mm
07:35 AM 22.5°F-5.3°C 18.9°F-7.3°C 86% 2.3 mph NNW3.7 kmh NNW 2.3 mph3.7 kmh 30.39 in1029.1 mb - 0.00 in0.0 mm 0.00 in0.0 mm
07:30 AM 22.4°F-5.3°C 18.8°F-7.3°C 86% 2.3 mph NE3.7 kmh NE 3.5 mph5.6 kmh 30.39 in1029.1 mb - 0.00 in0.0 mm 0.00 in0.0 mm
07:25 AM 21.8°F-5.7°C 18.3°F-7.6°C 86% 2.3 mph E3.7 kmh E 3.5 mph5.6 kmh 30.40 in1029.5 mb - 0.00 in0.0 mm 0.00 in0.0 mm
07:20 AM 21.2°F-6.0°C 18.2°F-7.7°C 88% 2.3 mph E3.7 kmh E 2.3 mph3.7 kmh 30.39 in1029.1 mb - 0.00 in0.0 mm 0.00 in0.0 mm
07:15 AM 20.6°F-6.3°C 17.6°F-8.0°C 88% 2.3 mph E3.7 kmh E 3.5 mph5.6 kmh 30.39 in1029.1 mb - 0.00 in0.0 mm 0.00 in0.0 mm
07:10 AM 19.8°F-6.8°C 16.8°F-8.4°C 88% 2.3 mph E3.7 kmh E 3.5 mph5.6 kmh 30.39 in1029.1 mb - 0.00 in0.0 mm 0.00 in0.0 mm
07:00 AM 19.8°F-6.8°C 16.8°F-8.4°C 88% 2.3 mph E3.7 kmh E 3.5 mph5.6 kmh 30.39 in1029.1 mb - 0.00 in0.0 mm 0.00 in0.0 mm
06:55 AM 19.8°F-6.8°C 16.8°F-8.4°C 88% 3.5 mph E5.6 kmh E 3.5 mph5.6 kmh 30.39 in1029.1 mb - 0.00 in0.0 mm 0.00 in0.0 mm
06:50 AM 19.6°F-6.9°C 16.6°F-8.6°C 88% 2.3 mph E3.7 kmh E 3.5 mph5.6 kmh 30.38 in1028.8 mb - 0.00 in0.0 mm 0.00 in0.0 mm
06:45 AM 19.6°F-6.9°C 16.6°F-8.6°C 88% 2.3 mph E3.7 kmh E 3.5 mph5.6 kmh 30.39 in1029.1 mb - 0.00 in0.0 mm 0.00 in0.0 mm
06:40 AM 19.7°F-6.8°C 16.7°F-8.5°C 88% 2.3 mph E3.7 kmh E 3.5 mph5.6 kmh 30.39 in1029.1 mb - 0.00 in0.0 mm 0.00 in0.0 mm
06:35 AM 19.8°F-6.8°C 16.8°F-8.4°C 88% 2.3 mph E3.7 kmh E 2.3 mph3.7 kmh 30.38 in1028.8 mb - 0.00 in0.0 mm 0.00 in0.0 mm
06:30 AM 19.9°F-6.7°C 17.0°F-8.3°C 88% 2.3 mph E3.7 kmh E 3.5 mph5.6 kmh 30.39 in1029.1 mb - 0.00 in0.0 mm 0.00 in0.0 mm
06:25 AM 19.8°F-6.8°C 16.8°F-8.4°C 88% 3.5 mph NNE5.6 kmh NNE 3.5 mph5.6 kmh 30.39 in1029.1 mb - 0.00 in0.0 mm 0.00 in0.0 mm
06:20 AM 19.8°F-6.8°C 16.8°F-8.4°C 88% 2.3 mph E3.7 kmh E 3.5 mph5.6 kmh 30.38 in1028.8 mb - 0.00 in0.0 mm 0.00 in0.0 mm
06:15 AM 19.8°F-6.8°C 16.8°F-8.4°C 88% 2.3 mph E3.7 kmh E 2.3 mph3.7 kmh 30.38 in1028.8 mb - 0.00 in0.0 mm 0.00 in0.0 mm
06:10 AM 19.8°F-6.8°C 16.8°F-8.4°C 88% 2.3 mph E3.7 kmh E 3.5 mph5.6 kmh 30.38 in1028.8 mb - 0.00 in0.0 mm 0.00 in0.0 mm
06:00 AM 19.8°F-6.8°C 16.8°F-8.4°C 88% 2.3 mph E3.7 kmh E 3.5 mph5.6 kmh 30.38 in1028.8 mb - 0.00 in0.0 mm 0.00 in0.0 mm
05:55 AM 19.8°F-6.8°C 16.8°F-8.4°C 88% 2.3 mph E3.7 kmh E 3.5 mph5.6 kmh 30.38 in1028.8 mb - 0.00 in0.0 mm 0.00 in0.0 mm
05:50 AM 20.1°F-6.6°C 16.6°F-8.6°C 86% 2.3 mph E3.7 kmh E 3.5 mph5.6 kmh 30.38 in1028.8 mb - 0.00 in0.0 mm 0.00 in0.0 mm
05:45 AM 20.5°F-6.4°C 17.0°F-8.3°C 86% 3.5 mph E5.6 kmh E 3.5 mph5.6 kmh 30.37 in1028.4 mb - 0.00 in0.0 mm 0.00 in0.0 mm
05:40 AM 20.5°F-6.4°C 17.0°F-8.3°C 86% 3.5 mph NE5.6 kmh NE 3.5 mph5.6 kmh 30.38 in1028.8 mb - 0.00 in0.0 mm 0.00 in0.0 mm
05:35 AM 20.5°F-6.4°C 17.0°F-8.3°C 86% 2.3 mph NNE3.7 kmh NNE 3.5 mph5.6 kmh 30.38 in1028.8 mb - 0.00 in0.0 mm 0.00 in0.0 mm
05:30 AM 20.7°F-6.3°C 17.1°F-8.3°C 86% 2.3 mph N3.7 kmh N 3.5 mph5.6 kmh 30.37 in1028.4 mb - 0.00 in0.0 mm 0.00 in0.0 mm
05:25 AM 20.7°F-6.3°C 17.1°F-8.3°C 86% 3.5 mph NNE5.6 kmh NNE 3.5 mph5.6 kmh 30.37 in1028.4 mb - 0.00 in0.0 mm 0.00 in0.0 mm
05:20 AM 20.7°F-6.3°C 17.1°F-8.3°C 86% 2.3 mph NNE3.7 kmh NNE 3.5 mph5.6 kmh 30.37 in1028.4 mb - 0.00 in0.0 mm 0.00 in0.0 mm
05:15 AM 20.8°F-6.2°C 17.3°F-8.2°C 86% 3.5 mph NE5.6 kmh NE 3.5 mph5.6 kmh 30.37 in1028.4 mb - 0.00 in0.0 mm 0.00 in0.0 mm
05:10 AM 20.8°F-6.2°C 17.0°F-8.3°C 85% 4.6 mph NNE7.4 kmh NNE 3.5 mph5.6 kmh 30.37 in1028.4 mb - 0.00 in0.0 mm 0.00 in0.0 mm
05:00 AM 21.2°F-6.0°C 17.4°F-8.1°C 85% 2.3 mph NNE3.7 kmh NNE 3.5 mph5.6 kmh 30.37 in1028.4 mb - 0.00 in0.0 mm 0.00 in0.0 mm
04:55 AM 21.4°F-5.9°C 17.0°F-8.3°C 83% 3.5 mph NE5.6 kmh NE 3.5 mph5.6 kmh 30.37 in1028.4 mb - 0.00 in0.0 mm 0.00 in0.0 mm
04:50 AM 21.4°F-5.9°C 17.1°F-8.3°C 83% 3.5 mph E5.6 kmh E 3.5 mph5.6 kmh 30.37 in1028.4 mb - 0.00 in0.0 mm 0.00 in0.0 mm
04:45 AM 21.6°F-5.8°C 17.2°F-8.2°C 83% 3.5 mph E5.6 kmh E 3.5 mph5.6 kmh 30.36 in1028.1 mb - 0.00 in0.0 mm 0.00 in0.0 mm
04:40 AM 21.6°F-5.8°C 17.2°F-8.2°C 83% 4.6 mph NE7.4 kmh NE 4.6 mph7.4 kmh 30.37 in1028.4 mb - 0.00 in0.0 mm 0.00 in0.0 mm
04:35 AM 21.6°F-5.8°C 17.2°F-8.2°C 83% 3.5 mph NNE5.6 kmh NNE 3.5 mph5.6 kmh 30.36 in1028.1 mb - 0.00 in0.0 mm 0.00 in0.0 mm
04:30 AM 21.6°F-5.8°C 17.2°F-8.2°C 83% 3.5 mph NNE5.6 kmh NNE 4.6 mph7.4 kmh 30.36 in1028.1 mb - 0.00 in0.0 mm 0.00 in0.0 mm
04:25 AM 21.7°F-5.7°C 17.4°F-8.1°C 83% 4.6 mph NE7.4 kmh NE 2.3 mph3.7 kmh 30.36 in1028.1 mb - 0.00 in0.0 mm 0.00 in0.0 mm
04:20 AM 21.7°F-5.7°C 17.4°F-8.1°C 83% 3.5 mph NNW5.6 kmh NNW 4.6 mph7.4 kmh 30.35 in1027.8 mb - 0.00 in0.0 mm 0.00 in0.0 mm
04:15 AM 21.7°F-5.7°C 17.4°F-8.1°C 83% 3.5 mph NE5.6 kmh NE 3.5 mph5.6 kmh 30.35 in1027.8 mb - 0.00 in0.0 mm 0.00 in0.0 mm
04:10 AM 21.9°F-5.6°C 17.5°F-8.1°C 83% 4.6 mph NE7.4 kmh NE 4.6 mph7.4 kmh 30.35 in1027.8 mb - 0.00 in0.0 mm 0.00 in0.0 mm
04:00 AM 21.9°F-5.6°C 17.5°F-8.1°C 83% 3.5 mph E5.6 kmh E 3.5 mph5.6 kmh 30.35 in1027.8 mb - 0.00 in0.0 mm 0.00 in0.0 mm
03:55 AM 21.9°F-5.6°C 17.5°F-8.1°C 83% 4.6 mph NE7.4 kmh NE 4.6 mph7.4 kmh 30.35 in1027.8 mb - 0.00 in0.0 mm 0.00 in0.0 mm
03:50 AM 21.9°F-5.6°C 17.5°F-8.1°C 83% 4.6 mph NE7.4 kmh NE 4.6 mph7.4 kmh 30.34 in1027.4 mb - 0.00 in0.0 mm 0.00 in0.0 mm
03:45 AM 21.9°F-5.6°C 17.0°F-8.3°C 81% 4.6 mph NNE7.4 kmh NNE 8.1 mph13.0 kmh 30.34 in1027.4 mb - 0.00 in0.0 mm 0.00 in0.0 mm
03:40 AM 22.0°F-5.6°C 17.0°F-8.3°C 81% 3.5 mph NNE5.6 kmh NNE 6.9 mph11.1 kmh 30.34 in1027.4 mb - 0.00 in0.0 mm 0.00 in0.0 mm
03:35 AM 22.1°F-5.5°C 17.2°F-8.2°C 81% 4.6 mph NNE7.4 kmh NNE 4.6 mph7.4 kmh 30.34 in1027.4 mb - 0.00 in0.0 mm 0.00 in0.0 mm
03:30 AM 22.3°F-5.4°C 17.3°F-8.2°C 81% 5.8 mph N9.3 kmh N 5.8 mph9.3 kmh 30.34 in1027.4 mb - 0.00 in0.0 mm 0.00 in0.0 mm
03:25 AM 22.3°F-5.4°C 17.0°F-8.3°C 80% 5.8 mph N9.3 kmh N 5.8 mph9.3 kmh 30.34 in1027.4 mb - 0.00 in0.0 mm 0.00 in0.0 mm
03:20 AM 22.3°F-5.4°C 17.0°F-8.3°C 80% 4.6 mph NNW7.4 kmh NNW 6.9 mph11.1 kmh 30.33 in1027.1 mb - 0.00 in0.0 mm 0.00 in0.0 mm
03:15 AM 22.3°F-5.4°C 16.8°F-8.4°C 79% 4.6 mph N7.4 kmh N 6.9 mph11.1 kmh 30.34 in1027.4 mb - 0.00 in0.0 mm 0.00 in0.0 mm
03:10 AM 22.5°F-5.3°C 16.9°F-8.4°C 79% 5.8 mph NNE9.3 kmh NNE 5.8 mph9.3 kmh 30.33 in1027.1 mb - 0.00 in0.0 mm 0.00 in0.0 mm
03:00 AM 22.5°F-5.3°C 16.6°F-8.6°C 78% 5.8 mph NNE9.3 kmh NNE 6.9 mph11.1 kmh 30.33 in1027.1 mb - 0.00 in0.0 mm 0.00 in0.0 mm
02:55 AM 22.5°F-5.3°C 16.6°F-8.6°C 78% 5.8 mph NNE9.3 kmh NNE 9.2 mph14.8 kmh 30.33 in1027.1 mb - 0.00 in0.0 mm 0.00 in0.0 mm
02:50 AM 22.5°F-5.3°C 16.6°F-8.6°C 78% 5.8 mph NE9.3 kmh NE 6.9 mph11.1 kmh 30.34 in1027.4 mb - 0.00 in0.0 mm 0.00 in0.0 mm
02:45 AM 22.5°F-5.3°C 16.6°F-8.6°C 78% 5.8 mph NNE9.3 kmh NNE 4.6 mph7.4 kmh 30.33 in1027.1 mb - 0.00 in0.0 mm 0.00 in0.0 mm
02:40 AM 22.5°F-5.3°C 16.6°F-8.6°C 78% 4.6 mph NNW7.4 kmh NNW 9.2 mph14.8 kmh 30.32 in1026.8 mb - 0.00 in0.0 mm 0.00 in0.0 mm
02:35 AM 22.5°F-5.3°C 16.6°F-8.6°C 78% 6.9 mph NE11.1 kmh NE 8.1 mph13.0 kmh 30.33 in1027.1 mb - 0.00 in0.0 mm 0.00 in0.0 mm
02:30 AM 22.5°F-5.3°C 16.3°F-8.7°C 77% 4.6 mph N7.4 kmh N 9.2 mph14.8 kmh 30.32 in1026.8 mb - 0.00 in0.0 mm 0.00 in0.0 mm
02:25 AM 22.7°F-5.2°C 16.3°F-8.7°C 76% 6.9 mph NNE11.1 kmh NNE 5.8 mph9.3 kmh 30.32 in1026.8 mb - 0.00 in0.0 mm 0.00 in0.0 mm
02:20 AM 22.8°F-5.1°C 16.4°F-8.7°C 76% 4.6 mph NE7.4 kmh NE 4.6 mph7.4 kmh 30.33 in1027.1 mb - 0.00 in0.0 mm 0.00 in0.0 mm
02:15 AM 22.8°F-5.1°C 16.1°F-8.8°C 75% 5.8 mph N9.3 kmh N 6.9 mph11.1 kmh 30.32 in1026.8 mb - 0.00 in0.0 mm 0.00 in0.0 mm
02:10 AM 22.8°F-5.1°C 16.1°F-8.8°C 75% 6.9 mph NNW11.1 kmh NNW 5.8 mph9.3 kmh 30.32 in1026.8 mb - 0.00 in0.0 mm 0.00 in0.0 mm
02:00 AM 23.2°F-4.9°C 16.4°F-8.7°C 75% 4.6 mph NNE7.4 kmh NNE 10.4 mph16.7 kmh 30.32 in1026.8 mb - 0.00 in0.0 mm 0.00 in0.0 mm
01:55 AM 23.2°F-4.9°C 16.4°F-8.7°C 75% 6.9 mph NNE11.1 kmh NNE 3.5 mph5.6 kmh 30.32 in1026.8 mb - 0.00 in0.0 mm 0.00 in0.0 mm
01:50 AM 23.2°F-4.9°C 16.4°F-8.7°C 75% 6.9 mph NNE11.1 kmh NNE 8.1 mph13.0 kmh 30.32 in1026.8 mb - 0.00 in0.0 mm 0.00 in0.0 mm
01:45 AM 23.4°F-4.8°C 16.6°F-8.6°C 75% 4.6 mph NE7.4 kmh NE 4.6 mph7.4 kmh 30.32 in1026.8 mb - 0.00 in0.0 mm 0.00 in0.0 mm
01:40 AM 23.7°F-4.6°C 16.6°F-8.6°C 74% 5.8 mph N9.3 kmh N 5.8 mph9.3 kmh 30.32 in1026.8 mb - 0.00 in0.0 mm 0.00 in0.0 mm
01:35 AM 23.7°F-4.6°C 16.6°F-8.6°C 74% 8.1 mph NE13.0 kmh NE 11.5 mph18.5 kmh 30.32 in1026.8 mb - 0.00 in0.0 mm 0.00 in0.0 mm
01:30 AM 23.7°F-4.6°C 16.3°F-8.7°C 73% 6.9 mph NNE11.1 kmh NNE 11.5 mph18.5 kmh 30.32 in1026.8 mb - 0.00 in0.0 mm 0.00 in0.0 mm
01:25 AM 24.1°F-4.4°C 17.0°F-8.3°C 74% 5.8 mph N9.3 kmh N 11.5 mph18.5 kmh 30.32 in1026.8 mb - 0.00 in0.0 mm 0.00 in0.0 mm
01:20 AM 24.3°F-4.3°C 16.8°F-8.4°C 73% 6.9 mph NE11.1 kmh NE 9.2 mph14.8 kmh 30.30 in1026.1 mb - 0.00 in0.0 mm 0.00 in0.0 mm
01:15 AM 24.4°F-4.2°C 17.0°F-8.3°C 73% 6.9 mph NE11.1 kmh NE 8.1 mph13.0 kmh 30.32 in1026.8 mb - 0.00 in0.0 mm 0.00 in0.0 mm
01:10 AM 24.4°F-4.2°C 17.0°F-8.3°C 73% 8.1 mph NNE13.0 kmh NNE 12.7 mph20.4 kmh 30.30 in1026.1 mb - 0.00 in0.0 mm 0.00 in0.0 mm
01:00 AM 25.0°F-3.9°C 17.5°F-8.1°C 73% 5.8 mph NNE9.3 kmh NNE 5.8 mph9.3 kmh 30.30 in1026.1 mb - 0.00 in0.0 mm 0.00 in0.0 mm
12:55 AM 25.2°F-3.8°C 17.4°F-8.1°C 72% 5.8 mph N9.3 kmh N 11.5 mph18.5 kmh 30.30 in1026.1 mb - 0.00 in0.0 mm 0.00 in0.0 mm
12:50 AM 25.3°F-3.7°C 16.9°F-8.4°C 70% 8.1 mph NW13.0 kmh NW 16.1 mph25.9 kmh 30.31 in1026.4 mb - 0.00 in0.0 mm 0.00 in0.0 mm
12:45 AM 25.7°F-3.5°C 16.6°F-8.6°C 68% 6.9 mph NE11.1 kmh NE 10.4 mph16.7 kmh 30.30 in1026.1 mb - 0.00 in0.0 mm 0.00 in0.0 mm
12:40 AM 25.9°F-3.4°C 16.8°F-8.4°C 68% 6.9 mph NNE11.1 kmh NNE 15.0 mph24.1 kmh 30.30 in1026.1 mb - 0.00 in0.0 mm 0.00 in0.0 mm
12:35 AM 26.1°F-3.3°C 16.9°F-8.4°C 68% 6.9 mph NE11.1 kmh NE 5.8 mph9.3 kmh 30.30 in1026.1 mb - 0.00 in0.0 mm 0.00 in0.0 mm
12:30 AM 26.2°F-3.2°C 16.4°F-8.7°C 66% 6.9 mph NNW11.1 kmh NNW 9.2 mph14.8 kmh 30.31 in1026.4 mb - 0.00 in0.0 mm 0.00 in0.0 mm
12:25 AM 26.6°F-3.0°C 16.4°F-8.7°C 65% 6.9 mph N11.1 kmh N 6.9 mph11.1 kmh 30.30 in1026.1 mb - 0.00 in0.0 mm 0.00 in0.0 mm
12:20 AM 27.0°F-2.8°C 16.8°F-8.4°C 65% 8.1 mph NNE13.0 kmh NNE 10.4 mph16.7 kmh 30.30 in1026.1 mb - 0.00 in0.0 mm 0.00 in0.0 mm
12:15 AM 27.3°F-2.6°C 16.4°F-8.7°C 63% 5.8 mph ENE9.3 kmh ENE 11.5 mph18.5 kmh 30.30 in1026.1 mb - 0.00 in0.0 mm 0.00 in0.0 mm
12:10 AM 27.7°F-2.4°C 16.0°F-8.9°C 61% 8.1 mph NE13.0 kmh NE 9.2 mph14.8 kmh 30.30 in1026.1 mb - 0.00 in0.0 mm 0.00 in0.0 mm
12:00 AM 27.9°F-2.3°C 16.1°F-8.8°C 61% 6.9 mph ENE11.1 kmh ENE 8.1 mph13.0 kmh 30.30 in1026.1 mb - 0.00 in0.0 mm 0.00 in0.0 mm